sensor_id;sensor_type;location;lat;lon;timestamp;temperature;humidity
12520;DHT22;6325;49.540;8.364;2023-05-09T00:01:23;16.20;99.90
12520;DHT22;6325;49.540;8.364;2023-05-09T00:03:52;16.10;99.90
12520;DHT22;6325;49.540;8.364;2023-05-09T00:06:19;16.00;99.90
12520;DHT22;6325;49.540;8.364;2023-05-09T00:08:47;16.40;99.90
12520;DHT22;6325;49.540;8.364;2023-05-09T00:11:14;16.60;99.90
12520;DHT22;6325;49.540;8.364;2023-05-09T00:13:41;16.50;99.90
12520;DHT22;6325;49.540;8.364;2023-05-09T00:16:08;16.40;99.90
12520;DHT22;6325;49.540;8.364;2023-05-09T00:18:35;16.60;99.90
12520;DHT22;6325;49.540;8.364;2023-05-09T00:21:02;16.40;99.90
12520;DHT22;6325;49.540;8.364;2023-05-09T00:23:29;15.70;99.90
12520;DHT22;6325;49.540;8.364;2023-05-09T00:25:57;16.30;99.90
12520;DHT22;6325;49.540;8.364;2023-05-09T00:28:24;16.10;99.90
12520;DHT22;6325;49.540;8.364;2023-05-09T00:30:52;16.20;99.90
12520;DHT22;6325;49.540;8.364;2023-05-09T00:33:19;15.50;99.90
12520;DHT22;6325;49.540;8.364;2023-05-09T00:35:45;15.70;99.90
12520;DHT22;6325;49.540;8.364;2023-05-09T00:38:12;16.00;99.90
12520;DHT22;6325;49.540;8.364;2023-05-09T00:40:39;16.00;99.90
12520;DHT22;6325;49.540;8.364;2023-05-09T00:43:07;16.00;99.90
12520;DHT22;6325;49.540;8.364;2023-05-09T00:45:34;16.10;99.90
12520;DHT22;6325;49.540;8.364;2023-05-09T00:48:01;15.70;99.90
12520;DHT22;6325;49.540;8.364;2023-05-09T00:50:28;16.10;99.90
12520;DHT22;6325;49.540;8.364;2023-05-09T00:52:57;15.90;99.90
12520;DHT22;6325;49.540;8.364;2023-05-09T00:55:24;15.50;99.90
12520;DHT22;6325;49.540;8.364;2023-05-09T00:57:51;16.40;99.90
12520;DHT22;6325;49.540;8.364;2023-05-09T01:00:20;15.80;99.90
12520;DHT22;6325;49.540;8.364;2023-05-09T01:02:48;16.00;99.90
12520;DHT22;6325;49.540;8.364;2023-05-09T01:05:17;15.80;99.90
12520;DHT22;6325;49.540;8.364;2023-05-09T01:07:49;16.30;99.90
12520;DHT22;6325;49.540;8.364;2023-05-09T01:10:24;16.10;99.90
12520;DHT22;6325;49.540;8.364;2023-05-09T01:12:57;15.70;99.90
12520;DHT22;6325;49.540;8.364;2023-05-09T01:15:30;15.50;99.90
12520;DHT22;6325;49.540;8.364;2023-05-09T01:17:59;16.10;99.90
12520;DHT22;6325;49.540;8.364;2023-05-09T01:20:32;15.70;99.90
12520;DHT22;6325;49.540;8.364;2023-05-09T01:23:10;15.60;99.90
12520;DHT22;6325;49.540;8.364;2023-05-09T01:25:49;15.20;99.90
12520;DHT22;6325;49.540;8.364;2023-05-09T01:28:34;15.50;99.90
12520;DHT22;6325;49.540;8.364;2023-05-09T01:31:04;15.50;99.90
12520;DHT22;6325;49.540;8.364;2023-05-09T01:33:32;15.50;99.90
12520;DHT22;6325;49.540;8.364;2023-05-09T01:36:04;15.40;99.90
12520;DHT22;6325;49.540;8.364;2023-05-09T01:38:33;15.00;99.90
12520;DHT22;6325;49.540;8.364;2023-05-09T01:41:03;15.30;99.90
12520;DHT22;6325;49.540;8.364;2023-05-09T01:43:32;15.30;99.90
12520;DHT22;6325;49.540;8.364;2023-05-09T01:46:00;15.40;99.90
12520;DHT22;6325;49.540;8.364;2023-05-09T01:48:30;14.90;99.90
12520;DHT22;6325;49.540;8.364;2023-05-09T01:50:58;15.60;99.90
12520;DHT22;6325;49.540;8.364;2023-05-09T01:53:27;15.50;99.90
12520;DHT22;6325;49.540;8.364;2023-05-09T01:55:55;15.20;99.90
12520;DHT22;6325;49.540;8.364;2023-05-09T01:58:24;15.30;99.90
12520;DHT22;6325;49.540;8.364;2023-05-09T02:00:52;15.50;99.90
12520;DHT22;6325;49.540;8.364;2023-05-09T02:03:20;15.10;99.90
12520;DHT22;6325;49.540;8.364;2023-05-09T02:05:49;15.50;99.90
12520;DHT22;6325;49.540;8.364;2023-05-09T02:08:17;15.20;99.90
12520;DHT22;6325;49.540;8.364;2023-05-09T02:10:46;15.50;99.90
12520;DHT22;6325;49.540;8.364;2023-05-09T02:13:13;15.10;99.90
12520;DHT22;6325;49.540;8.364;2023-05-09T02:15:41;15.00;99.90
12520;DHT22;6325;49.540;8.364;2023-05-09T02:18:08;15.20;99.90
12520;DHT22;6325;49.540;8.364;2023-05-09T02:20:35;14.90;99.90
12520;DHT22;6325;49.540;8.364;2023-05-09T02:23:03;15.00;99.90
12520;DHT22;6325;49.540;8.364;2023-05-09T02:25:31;15.00;99.90
12520;DHT22;6325;49.540;8.364;2023-05-09T02:28:00;14.30;99.90
12520;DHT22;6325;49.540;8.364;2023-05-09T02:30:32;14.80;99.90
12520;DHT22;6325;49.540;8.364;2023-05-09T02:33:05;14.20;99.90
12520;DHT22;6325;49.540;8.364;2023-05-09T02:35:33;14.70;99.90
12520;DHT22;6325;49.540;8.364;2023-05-09T02:38:02;15.30;99.90
12520;DHT22;6325;49.540;8.364;2023-05-09T02:40:29;14.80;99.90
12520;DHT22;6325;49.540;8.364;2023-05-09T02:42:56;14.80;99.90
12520;DHT22;6325;49.540;8.364;2023-05-09T02:45:23;14.70;99.90
12520;DHT22;6325;49.540;8.364;2023-05-09T02:47:50;15.00;99.90
12520;DHT22;6325;49.540;8.364;2023-05-09T02:50:17;14.40;99.90
12520;DHT22;6325;49.540;8.364;2023-05-09T02:52:44;14.70;99.90
12520;DHT22;6325;49.540;8.364;2023-05-09T02:55:12;14.40;99.90
12520;DHT22;6325;49.540;8.364;2023-05-09T02:57:39;15.10;99.90
12520;DHT22;6325;49.540;8.364;2023-05-09T03:00:07;14.70;99.90
12520;DHT22;6325;49.540;8.364;2023-05-09T03:02:34;14.70;99.90
12520;DHT22;6325;49.540;8.364;2023-05-09T03:05:01;14.20;99.90
12520;DHT22;6325;49.540;8.364;2023-05-09T03:07:28;14.30;99.90
12520;DHT22;6325;49.540;8.364;2023-05-09T03:09:59;14.00;99.90
12520;DHT22;6325;49.540;8.364;2023-05-09T03:12:27;14.20;99.90
12520;DHT22;6325;49.540;8.364;2023-05-09T03:14:54;14.00;99.90
12520;DHT22;6325;49.540;8.364;2023-05-09T03:17:21;15.00;99.90
12520;DHT22;6325;49.540;8.364;2023-05-09T03:19:48;14.40;99.90
12520;DHT22;6325;49.540;8.364;2023-05-09T03:22:16;14.90;99.90
12520;DHT22;6325;49.540;8.364;2023-05-09T03:24:42;14.40;99.90
12520;DHT22;6325;49.540;8.364;2023-05-09T03:27:09;14.40;99.90
12520;DHT22;6325;49.540;8.364;2023-05-09T03:29:40;14.20;99.90
12520;DHT22;6325;49.540;8.364;2023-05-09T03:32:07;14.90;99.90
12520;DHT22;6325;49.540;8.364;2023-05-09T03:34:33;14.20;99.90
12520;DHT22;6325;49.540;8.364;2023-05-09T03:37:00;14.90;99.90
12520;DHT22;6325;49.540;8.364;2023-05-09T03:39:27;14.40;99.90
12520;DHT22;6325;49.540;8.364;2023-05-09T03:41:54;14.40;99.90
12520;DHT22;6325;49.540;8.364;2023-05-09T03:44:21;14.40;99.90
12520;DHT22;6325;49.540;8.364;2023-05-09T03:46:49;14.20;99.90
12520;DHT22;6325;49.540;8.364;2023-05-09T03:49:16;14.40;99.90
12520;DHT22;6325;49.540;8.364;2023-05-09T03:51:42;14.20;99.90
12520;DHT22;6325;49.540;8.364;2023-05-09T03:54:09;14.80;99.90
12520;DHT22;6325;49.540;8.364;2023-05-09T03:56:36;15.00;99.90
12520;DHT22;6325;49.540;8.364;2023-05-09T03:59:03;14.50;99.90
12520;DHT22;6325;49.540;8.364;2023-05-09T04:01:30;14.80;99.90
12520;DHT22;6325;49.540;8.364;2023-05-09T04:03:58;14.70;99.90
12520;DHT22;6325;49.540;8.364;2023-05-09T04:06:25;14.60;99.90
12520;DHT22;6325;49.540;8.364;2023-05-09T04:08:52;14.70;99.90
12520;DHT22;6325;49.540;8.364;2023-05-09T04:11:19;14.80;99.90
12520;DHT22;6325;49.540;8.364;2023-05-09T04:13:46;15.10;99.90
12520;DHT22;6325;49.540;8.364;2023-05-09T04:16:13;14.50;99.90
12520;DHT22;6325;49.540;8.364;2023-05-09T04:18:39;15.30;99.90
12520;DHT22;6325;49.540;8.364;2023-05-09T04:21:08;14.90;99.90
12520;DHT22;6325;49.540;8.364;2023-05-09T04:23:36;15.40;99.90
12520;DHT22;6325;49.540;8.364;2023-05-09T04:26:04;15.20;99.90
12520;DHT22;6325;49.540;8.364;2023-05-09T04:28:31;15.00;99.90
12520;DHT22;6325;49.540;8.364;2023-05-09T04:30:58;14.90;99.90
12520;DHT22;6325;49.540;8.364;2023-05-09T04:33:25;15.10;99.90
12520;DHT22;6325;49.540;8.364;2023-05-09T04:35:53;15.30;99.90
12520;DHT22;6325;49.540;8.364;2023-05-09T04:38:21;14.80;99.90
12520;DHT22;6325;49.540;8.364;2023-05-09T04:40:48;15.20;99.90
12520;DHT22;6325;49.540;8.364;2023-05-09T04:43:15;15.30;99.90
12520;DHT22;6325;49.540;8.364;2023-05-09T04:45:43;15.40;99.90
12520;DHT22;6325;49.540;8.364;2023-05-09T04:48:10;15.30;99.90
12520;DHT22;6325;49.540;8.364;2023-05-09T04:50:37;15.80;99.90
12520;DHT22;6325;49.540;8.364;2023-05-09T04:53:04;15.60;99.90
12520;DHT22;6325;49.540;8.364;2023-05-09T04:55:34;15.30;99.90
12520;DHT22;6325;49.540;8.364;2023-05-09T04:58:00;15.00;99.90
12520;DHT22;6325;49.540;8.364;2023-05-09T05:00:27;15.90;99.90
12520;DHT22;6325;49.540;8.364;2023-05-09T05:02:54;15.40;99.90
12520;DHT22;6325;49.540;8.364;2023-05-09T05:05:21;15.50;99.90
12520;DHT22;6325;49.540;8.364;2023-05-09T05:07:48;15.50;99.90
12520;DHT22;6325;49.540;8.364;2023-05-09T05:10:15;15.30;99.90
12520;DHT22;6325;49.540;8.364;2023-05-09T05:12:43;15.60;99.90
12520;DHT22;6325;49.540;8.364;2023-05-09T05:15:11;15.40;99.90
12520;DHT22;6325;49.540;8.364;2023-05-09T05:17:38;15.40;99.90
12520;DHT22;6325;49.540;8.364;2023-05-09T05:20:06;15.70;99.90
12520;DHT22;6325;49.540;8.364;2023-05-09T05:22:34;15.70;99.90
12520;DHT22;6325;49.540;8.364;2023-05-09T05:25:01;15.80;99.90
12520;DHT22;6325;49.540;8.364;2023-05-09T05:27:29;15.90;99.90
12520;DHT22;6325;49.540;8.364;2023-05-09T05:29:57;16.00;99.90
12520;DHT22;6325;49.540;8.364;2023-05-09T05:32:24;16.00;99.90
12520;DHT22;6325;49.540;8.364;2023-05-09T05:34:51;16.10;99.90
12520;DHT22;6325;49.540;8.364;2023-05-09T05:37:18;16.10;99.90
12520;DHT22;6325;49.540;8.364;2023-05-09T05:39:44;16.20;99.90
12520;DHT22;6325;49.540;8.364;2023-05-09T05:42:12;16.20;99.90
12520;DHT22;6325;49.540;8.364;2023-05-09T05:44:39;16.90;99.90
12520;DHT22;6325;49.540;8.364;2023-05-09T05:47:07;16.30;99.90
12520;DHT22;6325;49.540;8.364;2023-05-09T05:49:34;16.00;99.90
12520;DHT22;6325;49.540;8.364;2023-05-09T05:52:01;16.50;99.90
12520;DHT22;6325;49.540;8.364;2023-05-09T05:54:28;17.00;99.90
12520;DHT22;6325;49.540;8.364;2023-05-09T05:56:54;16.90;99.90
12520;DHT22;6325;49.540;8.364;2023-05-09T05:59:21;16.50;99.90
12520;DHT22;6325;49.540;8.364;2023-05-09T06:01:48;16.80;99.90
12520;DHT22;6325;49.540;8.364;2023-05-09T06:04:17;16.50;99.90
12520;DHT22;6325;49.540;8.364;2023-05-09T06:06:44;16.80;99.90
12520;DHT22;6325;49.540;8.364;2023-05-09T06:09:11;16.50;99.90
12520;DHT22;6325;49.540;8.364;2023-05-09T06:11:38;16.50;99.90
12520;DHT22;6325;49.540;8.364;2023-05-09T06:14:04;16.30;99.90
12520;DHT22;6325;49.540;8.364;2023-05-09T06:16:31;17.00;99.90
12520;DHT22;6325;49.540;8.364;2023-05-09T06:18:58;16.60;99.90
12520;DHT22;6325;49.540;8.364;2023-05-09T06:21:26;17.20;99.90
12520;DHT22;6325;49.540;8.364;2023-05-09T06:23:53;17.20;99.90
12520;DHT22;6325;49.540;8.364;2023-05-09T06:26:20;17.10;99.90
12520;DHT22;6325;49.540;8.364;2023-05-09T06:28:47;16.90;99.90
12520;DHT22;6325;49.540;8.364;2023-05-09T06:31:14;17.10;99.90
12520;DHT22;6325;49.540;8.364;2023-05-09T06:33:41;17.00;99.90
12520;DHT22;6325;49.540;8.364;2023-05-09T06:36:08;17.30;99.90
12520;DHT22;6325;49.540;8.364;2023-05-09T06:38:36;17.30;99.90
12520;DHT22;6325;49.540;8.364;2023-05-09T06:41:03;17.20;99.90
12520;DHT22;6325;49.540;8.364;2023-05-09T06:43:30;17.10;99.90
12520;DHT22;6325;49.540;8.364;2023-05-09T06:45:57;17.40;99.90
12520;DHT22;6325;49.540;8.364;2023-05-09T06:48:23;17.20;99.90
12520;DHT22;6325;49.540;8.364;2023-05-09T06:50:51;17.40;99.90
12520;DHT22;6325;49.540;8.364;2023-05-09T06:53:18;17.30;99.90
12520;DHT22;6325;49.540;8.364;2023-05-09T06:55:46;16.90;99.90
12520;DHT22;6325;49.540;8.364;2023-05-09T06:58:12;17.20;99.90
12520;DHT22;6325;49.540;8.364;2023-05-09T07:00:39;17.40;99.90
12520;DHT22;6325;49.540;8.364;2023-05-09T07:03:06;17.50;99.90
12520;DHT22;6325;49.540;8.364;2023-05-09T07:05:33;17.40;99.90
12520;DHT22;6325;49.540;8.364;2023-05-09T07:08:00;17.30;99.90
12520;DHT22;6325;49.540;8.364;2023-05-09T07:10:27;17.20;99.90
12520;DHT22;6325;49.540;8.364;2023-05-09T07:12:55;17.30;99.90
12520;DHT22;6325;49.540;8.364;2023-05-09T07:15:22;16.90;99.90
12520;DHT22;6325;49.540;8.364;2023-05-09T07:17:49;17.30;99.90
12520;DHT22;6325;49.540;8.364;2023-05-09T07:20:17;17.20;99.90
12520;DHT22;6325;49.540;8.364;2023-05-09T07:22:44;17.50;99.90
12520;DHT22;6325;49.540;8.364;2023-05-09T07:25:10;17.60;99.90
12520;DHT22;6325;49.540;8.364;2023-05-09T07:27:37;17.90;99.90
12520;DHT22;6325;49.540;8.364;2023-05-09T07:30:07;17.50;99.90
12520;DHT22;6325;49.540;8.364;2023-05-09T07:32:34;17.70;99.90
12520;DHT22;6325;49.540;8.364;2023-05-09T07:35:01;17.80;99.90
12520;DHT22;6325;49.540;8.364;2023-05-09T07:37:28;18.10;99.90
12520;DHT22;6325;49.540;8.364;2023-05-09T07:39:55;18.20;99.90
12520;DHT22;6325;49.540;8.364;2023-05-09T07:42:22;18.20;99.90
12520;DHT22;6325;49.540;8.364;2023-05-09T07:44:48;18.30;99.90
12520;DHT22;6325;49.540;8.364;2023-05-09T07:47:17;18.30;99.90
12520;DHT22;6325;49.540;8.364;2023-05-09T07:49:47;18.40;99.90
12520;DHT22;6325;49.540;8.364;2023-05-09T07:52:14;18.40;99.90
12520;DHT22;6325;49.540;8.364;2023-05-09T07:54:42;18.40;99.90
12520;DHT22;6325;49.540;8.364;2023-05-09T07:57:09;18.20;99.90
12520;DHT22;6325;49.540;8.364;2023-05-09T07:59:36;18.50;99.90
12520;DHT22;6325;49.540;8.364;2023-05-09T08:02:02;18.30;99.90
12520;DHT22;6325;49.540;8.364;2023-05-09T08:04:30;18.30;99.90
12520;DHT22;6325;49.540;8.364;2023-05-09T08:06:57;18.30;99.90
12520;DHT22;6325;49.540;8.364;2023-05-09T08:09:24;18.30;99.90
12520;DHT22;6325;49.540;8.364;2023-05-09T08:11:51;18.40;99.90
12520;DHT22;6325;49.540;8.364;2023-05-09T08:14:18;18.40;99.90
12520;DHT22;6325;49.540;8.364;2023-05-09T08:16:45;18.50;99.90
12520;DHT22;6325;49.540;8.364;2023-05-09T08:19:11;18.10;99.90
12520;DHT22;6325;49.540;8.364;2023-05-09T08:21:39;18.70;99.90
12520;DHT22;6325;49.540;8.364;2023-05-09T08:24:07;18.90;99.90
12520;DHT22;6325;49.540;8.364;2023-05-09T08:26:37;18.80;99.90
12520;DHT22;6325;49.540;8.364;2023-05-09T08:29:04;19.30;99.90
12520;DHT22;6325;49.540;8.364;2023-05-09T08:31:31;19.30;99.90
12520;DHT22;6325;49.540;8.364;2023-05-09T08:33:59;19.30;99.90
12520;DHT22;6325;49.540;8.364;2023-05-09T08:36:26;19.10;99.90
12520;DHT22;6325;49.540;8.364;2023-05-09T08:38:54;19.20;99.90
12520;DHT22;6325;49.540;8.364;2023-05-09T08:41:24;18.90;99.90
12520;DHT22;6325;49.540;8.364;2023-05-09T08:43:52;19.60;99.90
12520;DHT22;6325;49.540;8.364;2023-05-09T08:46:23;18.70;99.90
12520;DHT22;6325;49.540;8.364;2023-05-09T08:48:52;19.10;99.90
12520;DHT22;6325;49.540;8.364;2023-05-09T08:51:19;19.00;99.90
12520;DHT22;6325;49.540;8.364;2023-05-09T08:53:47;19.00;99.90
12520;DHT22;6325;49.540;8.364;2023-05-09T08:56:15;19.00;99.90
12520;DHT22;6325;49.540;8.364;2023-05-09T08:58:42;19.00;99.90
12520;DHT22;6325;49.540;8.364;2023-05-09T09:01:13;19.20;99.90
12520;DHT22;6325;49.540;8.364;2023-05-09T09:03:40;18.80;99.90
12520;DHT22;6325;49.540;8.364;2023-05-09T09:06:12;19.00;99.90
12520;DHT22;6325;49.540;8.364;2023-05-09T09:08:39;19.00;99.90
12520;DHT22;6325;49.540;8.364;2023-05-09T09:11:06;19.40;99.90
12520;DHT22;6325;49.540;8.364;2023-05-09T09:13:39;19.70;99.90
12520;DHT22;6325;49.540;8.364;2023-05-09T09:16:09;19.70;99.90
12520;DHT22;6325;49.540;8.364;2023-05-09T09:18:39;19.20;99.90
12520;DHT22;6325;49.540;8.364;2023-05-09T09:21:08;19.70;99.90
12520;DHT22;6325;49.540;8.364;2023-05-09T09:23:38;19.70;99.90
12520;DHT22;6325;49.540;8.364;2023-05-09T09:26:07;19.00;99.90
12520;DHT22;6325;49.540;8.364;2023-05-09T09:28:34;19.30;99.90
12520;DHT22;6325;49.540;8.364;2023-05-09T09:31:18;19.80;99.90
12520;DHT22;6325;49.540;8.364;2023-05-09T09:33:45;19.60;99.90
12520;DHT22;6325;49.540;8.364;2023-05-09T09:36:11;19.40;99.90
12520;DHT22;6325;49.540;8.364;2023-05-09T09:38:40;19.40;99.90
12520;DHT22;6325;49.540;8.364;2023-05-09T09:41:08;19.30;99.90
12520;DHT22;6325;49.540;8.364;2023-05-09T09:43:36;19.80;99.90
12520;DHT22;6325;49.540;8.364;2023-05-09T09:46:04;19.30;99.90
12520;DHT22;6325;49.540;8.364;2023-05-09T09:48:32;19.30;99.90
12520;DHT22;6325;49.540;8.364;2023-05-09T09:51:07;19.30;99.90
12520;DHT22;6325;49.540;8.364;2023-05-09T09:53:39;19.40;99.90
12520;DHT22;6325;49.540;8.364;2023-05-09T09:56:06;19.50;99.90
12520;DHT22;6325;49.540;8.364;2023-05-09T09:58:33;19.80;99.90
12520;DHT22;6325;49.540;8.364;2023-05-09T10:01:05;19.60;99.90
12520;DHT22;6325;49.540;8.364;2023-05-09T10:03:37;19.80;99.90
12520;DHT22;6325;49.540;8.364;2023-05-09T10:06:04;20.30;99.90
12520;DHT22;6325;49.540;8.364;2023-05-09T10:08:31;20.20;99.90
12520;DHT22;6325;49.540;8.364;2023-05-09T10:10:58;20.40;99.90
12520;DHT22;6325;49.540;8.364;2023-05-09T10:13:26;20.80;99.90
12520;DHT22;6325;49.540;8.364;2023-05-09T10:15:54;20.70;99.90
12520;DHT22;6325;49.540;8.364;2023-05-09T10:18:25;21.40;99.90
12520;DHT22;6325;49.540;8.364;2023-05-09T10:20:53;20.80;99.90
12520;DHT22;6325;49.540;8.364;2023-05-09T10:23:21;21.30;99.90
12520;DHT22;6325;49.540;8.364;2023-05-09T10:25:56;21.50;99.90
12520;DHT22;6325;49.540;8.364;2023-05-09T10:28:29;21.80;99.90
12520;DHT22;6325;49.540;8.364;2023-05-09T10:31:03;21.90;99.90
12520;DHT22;6325;49.540;8.364;2023-05-09T10:33:39;22.70;99.90
12520;DHT22;6325;49.540;8.364;2023-05-09T10:36:07;22.70;99.90
12520;DHT22;6325;49.540;8.364;2023-05-09T10:38:35;22.30;99.90
12520;DHT22;6325;49.540;8.364;2023-05-09T10:41:03;22.30;99.90
12520;DHT22;6325;49.540;8.364;2023-05-09T10:43:32;22.50;99.90
12520;DHT22;6325;49.540;8.364;2023-05-09T10:45:59;22.00;99.90
12520;DHT22;6325;49.540;8.364;2023-05-09T10:48:26;22.40;99.90
12520;DHT22;6325;49.540;8.364;2023-05-09T10:50:55;22.20;99.90
12520;DHT22;6325;49.540;8.364;2023-05-09T10:53:22;23.10;99.90
12520;DHT22;6325;49.540;8.364;2023-05-09T10:55:52;23.00;99.90
12520;DHT22;6325;49.540;8.364;2023-05-09T10:58:23;23.20;99.90
12520;DHT22;6325;49.540;8.364;2023-05-09T11:00:51;23.30;99.90
12520;DHT22;6325;49.540;8.364;2023-05-09T11:03:19;23.00;99.90
12520;DHT22;6325;49.540;8.364;2023-05-09T11:05:47;23.20;99.90
12520;DHT22;6325;49.540;8.364;2023-05-09T11:08:19;22.80;99.90
12520;DHT22;6325;49.540;8.364;2023-05-09T11:10:47;23.10;99.90
12520;DHT22;6325;49.540;8.364;2023-05-09T11:13:17;22.80;99.90
12520;DHT22;6325;49.540;8.364;2023-05-09T11:16:03;23.30;99.90
12520;DHT22;6325;49.540;8.364;2023-05-09T11:18:31;23.20;99.90
12520;DHT22;6325;49.540;8.364;2023-05-09T11:20:58;23.00;99.90
12520;DHT22;6325;49.540;8.364;2023-05-09T11:23:29;23.50;99.90
12520;DHT22;6325;49.540;8.364;2023-05-09T11:26:04;23.50;99.90
12520;DHT22;6325;49.540;8.364;2023-05-09T11:28:31;22.40;99.90
12520;DHT22;6325;49.540;8.364;2023-05-09T11:31:08;22.90;99.90
12520;DHT22;6325;49.540;8.364;2023-05-09T11:33:36;23.40;99.90
12520;DHT22;6325;49.540;8.364;2023-05-09T11:36:19;22.80;99.90
12520;DHT22;6325;49.540;8.364;2023-05-09T11:39:00;23.20;99.90
12520;DHT22;6325;49.540;8.364;2023-05-09T11:41:27;22.70;99.90
12520;DHT22;6325;49.540;8.364;2023-05-09T11:43:54;22.70;99.90
12520;DHT22;6325;49.540;8.364;2023-05-09T11:46:23;22.50;99.90
12520;DHT22;6325;49.540;8.364;2023-05-09T11:48:50;22.60;99.90
12520;DHT22;6325;49.540;8.364;2023-05-09T11:51:19;22.50;99.90
12520;DHT22;6325;49.540;8.364;2023-05-09T11:53:49;22.30;99.90
12520;DHT22;6325;49.540;8.364;2023-05-09T11:56:19;22.70;99.90
12520;DHT22;6325;49.540;8.364;2023-05-09T11:58:49;22.60;99.90
12520;DHT22;6325;49.540;8.364;2023-05-09T12:01:17;22.40;99.90
12520;DHT22;6325;49.540;8.364;2023-05-09T12:03:44;22.80;99.90
12520;DHT22;6325;49.540;8.364;2023-05-09T12:06:14;22.40;99.90
12520;DHT22;6325;49.540;8.364;2023-05-09T12:08:42;22.50;99.90
12520;DHT22;6325;49.540;8.364;2023-05-09T12:11:10;22.50;99.90
12520;DHT22;6325;49.540;8.364;2023-05-09T12:13:44;22.50;99.90
12520;DHT22;6325;49.540;8.364;2023-05-09T12:16:12;23.60;99.90
12520;DHT22;6325;49.540;8.364;2023-05-09T12:18:43;22.80;99.90
12520;DHT22;6325;49.540;8.364;2023-05-09T12:21:10;22.80;99.90
12520;DHT22;6325;49.540;8.364;2023-05-09T12:23:37;22.00;99.90
12520;DHT22;6325;49.540;8.364;2023-05-09T12:26:04;22.40;99.90
12520;DHT22;6325;49.540;8.364;2023-05-09T12:28:31;22.00;99.90
12520;DHT22;6325;49.540;8.364;2023-05-09T12:31:01;21.90;99.90
12520;DHT22;6325;49.540;8.364;2023-05-09T12:33:29;22.10;99.90
12520;DHT22;6325;49.540;8.364;2023-05-09T12:36:05;22.20;99.90
12520;DHT22;6325;49.540;8.364;2023-05-09T12:38:32;22.10;99.90
12520;DHT22;6325;49.540;8.364;2023-05-09T12:41:00;22.20;99.90
12520;DHT22;6325;49.540;8.364;2023-05-09T12:43:29;22.50;99.90
12520;DHT22;6325;49.540;8.364;2023-05-09T12:45:57;21.90;99.90
12520;DHT22;6325;49.540;8.364;2023-05-09T12:48:25;21.70;99.90
12520;DHT22;6325;49.540;8.364;2023-05-09T12:50:52;22.00;99.90
12520;DHT22;6325;49.540;8.364;2023-05-09T12:53:23;21.90;99.90
12520;DHT22;6325;49.540;8.364;2023-05-09T12:55:53;21.80;99.90
12520;DHT22;6325;49.540;8.364;2023-05-09T12:58:20;21.40;99.90
12520;DHT22;6325;49.540;8.364;2023-05-09T13:00:47;21.90;99.90
12520;DHT22;6325;49.540;8.364;2023-05-09T13:03:20;21.60;99.90
12520;DHT22;6325;49.540;8.364;2023-05-09T13:05:58;21.90;99.90
12520;DHT22;6325;49.540;8.364;2023-05-09T13:08:25;21.80;99.90
12520;DHT22;6325;49.540;8.364;2023-05-09T13:10:52;21.90;99.90
12520;DHT22;6325;49.540;8.364;2023-05-09T13:13:19;21.80;99.90
12520;DHT22;6325;49.540;8.364;2023-05-09T13:15:47;22.10;99.90
12520;DHT22;6325;49.540;8.364;2023-05-09T13:18:14;22.10;99.90
12520;DHT22;6325;49.540;8.364;2023-05-09T13:20:40;22.30;99.90
12520;DHT22;6325;49.540;8.364;2023-05-09T13:23:09;22.40;99.90
12520;DHT22;6325;49.540;8.364;2023-05-09T13:25:35;22.20;99.90
12520;DHT22;6325;49.540;8.364;2023-05-09T13:28:02;22.50;99.90
12520;DHT22;6325;49.540;8.364;2023-05-09T13:30:29;22.50;99.90
12520;DHT22;6325;49.540;8.364;2023-05-09T13:32:56;23.30;99.90
12520;DHT22;6325;49.540;8.364;2023-05-09T13:35:23;22.80;99.90
12520;DHT22;6325;49.540;8.364;2023-05-09T13:37:50;22.80;99.90
12520;DHT22;6325;49.540;8.364;2023-05-09T13:40:18;22.30;99.90
12520;DHT22;6325;49.540;8.364;2023-05-09T13:42:45;22.80;99.90
12520;DHT22;6325;49.540;8.364;2023-05-09T13:45:13;23.20;99.90
12520;DHT22;6325;49.540;8.364;2023-05-09T13:47:40;22.80;99.90
12520;DHT22;6325;49.540;8.364;2023-05-09T13:50:07;23.30;99.90
12520;DHT22;6325;49.540;8.364;2023-05-09T13:52:34;23.30;99.90
12520;DHT22;6325;49.540;8.364;2023-05-09T13:55:01;23.60;99.90
12520;DHT22;6325;49.540;8.364;2023-05-09T13:57:29;23.70;99.90
12520;DHT22;6325;49.540;8.364;2023-05-09T13:59:55;23.10;99.90
12520;DHT22;6325;49.540;8.364;2023-05-09T14:02:22;23.10;99.90
12520;DHT22;6325;49.540;8.364;2023-05-09T14:04:49;23.30;99.90
12520;DHT22;6325;49.540;8.364;2023-05-09T14:07:18;23.20;99.90
12520;DHT22;6325;49.540;8.364;2023-05-09T14:09:45;23.60;99.90
12520;DHT22;6325;49.540;8.364;2023-05-09T14:12:12;23.40;99.90
12520;DHT22;6325;49.540;8.364;2023-05-09T14:14:40;23.00;99.90
12520;DHT22;6325;49.540;8.364;2023-05-09T14:17:07;22.40;99.90
12520;DHT22;6325;49.540;8.364;2023-05-09T14:19:33;23.30;99.90
12520;DHT22;6325;49.540;8.364;2023-05-09T14:22:00;22.60;99.90
12520;DHT22;6325;49.540;8.364;2023-05-09T14:24:27;22.60;99.90
12520;DHT22;6325;49.540;8.364;2023-05-09T14:26:55;22.60;99.90
12520;DHT22;6325;49.540;8.364;2023-05-09T14:29:22;22.00;99.90
12520;DHT22;6325;49.540;8.364;2023-05-09T14:31:50;22.00;99.90
12520;DHT22;6325;49.540;8.364;2023-05-09T14:34:17;22.30;99.90
12520;DHT22;6325;49.540;8.364;2023-05-09T14:36:44;22.00;99.90
12520;DHT22;6325;49.540;8.364;2023-05-09T14:39:10;22.10;99.90
12520;DHT22;6325;49.540;8.364;2023-05-09T14:41:39;22.00;99.90
12520;DHT22;6325;49.540;8.364;2023-05-09T14:44:05;22.10;99.90
12520;DHT22;6325;49.540;8.364;2023-05-09T14:46:32;22.10;99.90
12520;DHT22;6325;49.540;8.364;2023-05-09T14:49:04;21.80;99.90
12520;DHT22;6325;49.540;8.364;2023-05-09T14:51:30;21.90;99.90
12520;DHT22;6325;49.540;8.364;2023-05-09T14:53:57;21.70;99.90
12520;DHT22;6325;49.540;8.364;2023-05-09T14:56:24;21.40;99.90
12520;DHT22;6325;49.540;8.364;2023-05-09T14:58:51;22.10;99.90
12520;DHT22;6325;49.540;8.364;2023-05-09T15:01:18;21.60;99.90
12520;DHT22;6325;49.540;8.364;2023-05-09T15:03:45;21.90;99.90
12520;DHT22;6325;49.540;8.364;2023-05-09T15:06:13;21.40;99.90
12520;DHT22;6325;49.540;8.364;2023-05-09T15:08:41;21.70;99.90
12520;DHT22;6325;49.540;8.364;2023-05-09T15:11:07;21.50;99.90
12520;DHT22;6325;49.540;8.364;2023-05-09T15:13:34;21.70;99.90
12520;DHT22;6325;49.540;8.364;2023-05-09T15:16:01;21.70;99.90
12520;DHT22;6325;49.540;8.364;2023-05-09T15:18:28;21.50;99.90
12520;DHT22;6325;49.540;8.364;2023-05-09T15:20:54;21.70;99.90
12520;DHT22;6325;49.540;8.364;2023-05-09T15:23:23;21.80;99.90
12520;DHT22;6325;49.540;8.364;2023-05-09T15:25:50;21.70;99.90
12520;DHT22;6325;49.540;8.364;2023-05-09T15:28:16;21.70;99.90
12520;DHT22;6325;49.540;8.364;2023-05-09T15:30:43;21.70;99.90
12520;DHT22;6325;49.540;8.364;2023-05-09T15:33:10;21.40;99.90
12520;DHT22;6325;49.540;8.364;2023-05-09T15:35:37;21.60;99.90
12520;DHT22;6325;49.540;8.364;2023-05-09T15:38:04;21.60;99.90
12520;DHT22;6325;49.540;8.364;2023-05-09T15:40:33;21.60;99.90
12520;DHT22;6325;49.540;8.364;2023-05-09T15:43:00;21.60;99.90
12520;DHT22;6325;49.540;8.364;2023-05-09T15:45:29;21.60;99.90
12520;DHT22;6325;49.540;8.364;2023-05-09T15:47:56;21.70;99.90
12520;DHT22;6325;49.540;8.364;2023-05-09T15:50:23;21.50;99.90